Time;durP1;ratioP1;P1;durP2;ratioP2;P2;SDS_P1;SDS_P2;PMS_P1;PMS_P2;Temp;Humidity;BMP_temperature;BMP_pressure;BME280_temperature;BME280_humidity;BME280_pressure;Samples;Min_cycle;Max_cycle;Signal;HPM_P1;HPM_P2
2022/10/19 00:00:23;;;;;;;;;;;;;;;;;;4959153;28;19926;-55
2022/10/19 00:02:48;;;;;;;;;;;;;;;;;;4962323;28;20347;-55
2022/10/19 00:05:13;;;;;;;;;;;;;;;;;;4961871;28;19926;-54
2022/10/19 00:07:38;;;;;;;;;;;;;;;;;;4962110;28;20378;-55
2022/10/19 00:10:04;;;;;;;;;;;;;;;;;;4966127;28;19918;-55
2022/10/19 00:12:29;;;;;;;;;;;;;;;;;;4962962;28;19993;-55
2022/10/19 00:14:55;;;;;;;;;;;;;;;;;;4958815;28;19933;-55
2022/10/19 00:17:20;;;;;;;;;;;;;;;;;;4957056;28;19918;-55
2022/10/19 00:19:45;;;;;;;;;;;;;;;;;;4958658;28;20420;-55
2022/10/19 00:22:10;;;;;;;;;;;;;;;;;;4965085;28;19918;-55
2022/10/19 00:24:36;;;;;;;;;;;;;;;;;;4962622;28;20287;-55
2022/10/19 00:27:01;;;;;;;;;;;;;;;;;;4968078;28;20284;-55
2022/10/19 00:29:26;;;;;;;;;;;;;;;;;;4965448;28;19925;-55
2022/10/19 00:31:51;;;;;;;;;;;;;;;;;;4958786;28;19992;-55
2022/10/19 00:34:17;;;;;;;;;;;;;;;;;;4960505;28;19927;-55
2022/10/19 00:36:42;;;;;;;;;;;;;;;;;;4958940;28;19929;-55
2022/10/19 00:39:10;;;;;;;;;;;;;;;;;;4961793;28;19949;-55
2022/10/19 00:41:36;;;;;;;;;;;;;;;;;;4965753;28;19921;-55
2022/10/19 00:44:03;;;;;;;;;;;;;;;;;;4963466;28;20306;-55
2022/10/19 00:46:30;;;;;;;;;;;;;;;;;;4963779;28;19924;-55
2022/10/19 00:49:01;;;;;;;;;;;;;;;;;;4961897;28;20025;-55
2022/10/19 00:51:27;;;;;;;;;;;;;;;;;;4957308;28;19918;-55
2022/10/19 00:53:52;;;;;;;;;;;;;;;;;;4966499;28;19949;-54
2022/10/19 00:56:18;;;;;;;;;;;;;;;;;;4954012;28;20320;-55
2022/10/19 00:58:44;;;;;;;;;;;;;;;;;;4959038;28;19988;-55
2022/10/19 01:01:11;;;;;;;;;;;;;;;;;;4971221;28;19926;-55
2022/10/19 01:03:37;;;;;;;;;;;;;;;;;;4954138;28;20437;-54
2022/10/19 01:06:02;;;;;;;;;;;;;;;;;;4962100;28;19930;-55
2022/10/19 01:08:28;;;;;;;;;;;;;;;;;;4964258;28;19944;-55
2022/10/19 01:10:56;;;;;;;;;;;;;;;;;;4970016;28;19926;-55
2022/10/19 01:13:24;;;;;;;;;;;;;;;;;;4964241;28;19926;-55
2022/10/19 01:16:02;;;;;;;;;;;;;;;;;;4956664;28;19927;-55
2022/10/19 01:18:38;;;;;;;;;;;;;;;;;;4960342;28;20377;-55
2022/10/19 01:21:12;;;;;;;;;;;;;;;;;;4963650;28;19991;-54
2022/10/19 01:23:48;;;;;;;;;;;;;;;;;;4963639;28;19949;-55
2022/10/19 01:26:19;;;;;;;;;;;;;;;;;;4964107;28;19925;-55
2022/10/19 01:29:03;;;;;;;;;;;;;;;;;;4968140;28;19926;-54
2022/10/19 01:31:34;;;;;;;;;;;;;;;;;;4955628;28;19928;-55
2022/10/19 01:34:02;;;;;;;;;;;;;;;;;;4965142;28;19976;-54
2022/10/19 01:36:27;;;;;;;;;;;;;;;;;;4962184;28;19925;-53
2022/10/19 01:38:52;;;;;;;;;;;;;;;;;;4967338;28;19918;-54
2022/10/19 01:41:41;;;;;;;;;;;;;;;;;;4962903;28;19922;-55
2022/10/19 01:44:14;;;;;;;;;;;;;;;;;;4965387;28;19953;-54
2022/10/19 01:46:45;;;;;;;;;;;;;;;;;;4962500;28;19945;-55
2022/10/19 01:49:17;;;;;;;;;;;;;;;;;;4968487;28;19918;-55
2022/10/19 01:51:44;;;;;;;;;;;;;;;;;;4964834;28;19924;-54
2022/10/19 01:54:12;;;;;;;;;;;;;;;;;;4960559;28;19922;-54
2022/10/19 01:56:38;;;;;;;;;;;;;;;;;;4967385;28;19929;-55
2022/10/19 01:59:06;;;;;;;;;;;;;;;;;;4956513;28;19922;-54
2022/10/19 02:01:33;;;;;;;;;;;;;;;;;;4967720;28;19922;-54
2022/10/19 02:03:59;;;;;;;;;;;;;;;;;;4955115;28;20020;-55
2022/10/19 02:06:24;;;;;;;;;;;;;;;;;;4956811;28;19956;-54
2022/10/19 02:08:51;;;;;;;;;;;;;;;;;;4961395;28;19968;-54
2022/10/19 02:11:17;;;;;;;;;;;;;;;;;;4956413;28;20032;-55
2022/10/19 02:13:43;;;;;;;;;;;;;;;;;;4961315;28;19926;-55
2022/10/19 02:16:13;;;;;;;;;;;;;;;;;;4958949;28;19922;-54
2022/10/19 02:18:41;;;;;;;;;;;;;;;;;;4968719;28;19922;-55
2022/10/19 02:21:08;;;;;;;;;;;;;;;;;;4959133;28;20277;-54
2022/10/19 02:23:33;;;;;;;;;;;;;;;;;;4956976;28;19941;-54
2022/10/19 02:25:58;;;;;;;;;;;;;;;;;;4958260;28;20404;-54
2022/10/19 02:28:24;;;;;;;;;;;;;;;;;;4967989;28;20185;-54
2022/10/19 02:30:49;;;;;;;;;;;;;;;;;;4962776;28;19967;-54
2022/10/19 02:33:15;;;;;;;;;;;;;;;;;;4970076;28;19926;-54
2022/10/19 02:35:40;;;;;;;;;;;;;;;;;;4966733;28;19969;-54
2022/10/19 02:38:06;;;;;;;;;;;;;;;;;;4968915;28;19918;-54
2022/10/19 02:40:34;;;;;;;;;;;;;;;;;;4968220;28;19919;-54
2022/10/19 02:43:03;;;;;;;;;;;;;;;;;;4962103;28;19918;-54
2022/10/19 02:45:29;;;;;;;;;;;;;;;;;;4959487;28;20402;-55
2022/10/19 02:48:05;;;;;;;;;;;;;;;;;;4963076;28;20072;-54
2022/10/19 02:50:31;;;;;;;;;;;;;;;;;;4965972;28;19926;-54
2022/10/19 02:52:59;;;;;;;;;;;;;;;;;;4959814;28;20334;-53
2022/10/19 02:55:24;;;;;;;;;;;;;;;;;;4964963;28;20448;-55
2022/10/19 02:57:50;;;;;;;;;;;;;;;;;;4966158;28;19934;-54
2022/10/19 03:00:15;;;;;;;;;;;;;;;;;;4975124;28;20409;-54
2022/10/19 03:02:41;;;;;;;;;;;;;;;;;;4969949;28;19918;-54
2022/10/19 03:05:07;;;;;;;;;;;;;;;;;;4958435;28;19918;-53
2022/10/19 03:07:32;;;;;;;;;;;;;;;;;;4962151;28;20149;-54
2022/10/19 03:09:58;;;;;;;;;;;;;;;;;;4965750;28;20280;-54
2022/10/19 03:12:23;;;;;;;;;;;;;;;;;;4960176;28;20017;-54
2022/10/19 03:14:48;;;;;;;;;;;;;;;;;;4961589;28;19922;-55
2022/10/19 03:17:13;;;;;;;;;;;;;;;;;;4957632;28;20018;-54
2022/10/19 03:19:39;;;;;;;;;;;;;;;;;;4961710;28;19931;-54
2022/10/19 03:22:04;;;;;;;;;;;;;;;;;;4959329;28;19980;-55
2022/10/19 03:24:30;;;;;;;;;;;;;;;;;;4962491;28;19918;-53
2022/10/19 03:26:55;;;;;;;;;;;;;;;;;;4967065;28;19925;-54
2022/10/19 03:29:21;;;;;;;;;;;;;;;;;;4963439;28;19963;-53
2022/10/19 03:31:46;;;;;;;;;;;;;;;;;;4960495;28;19971;-54
2022/10/19 03:34:11;;;;;;;;;;;;;;;;;;4969483;28;19922;-53
2022/10/19 03:36:38;;;;;;;;;;;;;;;;;;4969135;28;19918;-53
2022/10/19 03:39:04;;;;;;;;;;;;;;;;;;4960013;28;19922;-53
2022/10/19 03:41:32;;;;;;;;;;;;;;;;;;4967744;28;19922;-54
2022/10/19 03:43:57;;;;;;;;;;;;;;;;;;4959940;28;19924;-53
2022/10/19 03:46:23;;;;;;;;;;;;;;;;;;4964556;28;19918;-53
2022/10/19 03:48:49;;;;;;;;;;;;;;;;;;4970564;28;20330;-53
2022/10/19 03:51:16;;;;;;;;;;;;;;;;;;4958924;28;19949;-53
2022/10/19 03:53:42;;;;;;;;;;;;;;;;;;4960542;28;19930;-53
2022/10/19 03:56:12;;;;;;;;;;;;;;;;;;4962534;28;20347;-53
2022/10/19 03:58:38;;;;;;;;;;;;;;;;;;4957636;28;19934;-53
2022/10/19 04:01:08;;;;;;;;;;;;;;;;;;4973505;28;19917;-53
2022/10/19 04:03:33;;;;;;;;;;;;;;;;;;4960243;28;20292;-54
2022/10/19 04:06:05;;;;;;;;;;;;;;;;;;4963762;28;19925;-54
2022/10/19 04:08:31;;;;;;;;;;;;;;;;;;4958390;28;20621;-54
2022/10/19 04:11:03;;;;;;;;;;;;;;;;;;4962865;28;19922;-54
2022/10/19 04:13:28;;;;;;;;;;;;;;;;;;4962216;28;19932;-54
2022/10/19 04:15:54;;;;;;;;;;;;;;;;;;4965997;28;19926;-54
2022/10/19 04:18:19;;;;;;;;;;;;;;;;;;4970421;28;20000;-54
2022/10/19 04:20:44;;;;;;;;;;;;;;;;;;4960697;28;20307;-54
2022/10/19 04:23:09;;;;;;;;;;;;;;;;;;4960420;28;19918;-54
2022/10/19 04:25:35;;;;;;;;;;;;;;;;;;4960164;28;19918;-53
2022/10/19 04:28:00;;;;;;;;;;;;;;;;;;4964520;28;20020;-53
2022/10/19 04:30:25;;;;;;;;;;;;;;;;;;4962831;28;20295;-54
2022/10/19 04:32:51;;;;;;;;;;;;;;;;;;4967540;28;19976;-53
2022/10/19 04:35:16;;;;;;;;;;;;;;;;;;4966779;28;19929;-53
2022/10/19 04:37:41;;;;;;;;;;;;;;;;;;4961348;28;19918;-53
2022/10/19 04:40:07;;;;;;;;;;;;;;;;;;4973105;28;19965;-53
2022/10/19 04:42:33;;;;;;;;;;;;;;;;;;4964535;28;19965;-53
2022/10/19 04:44:58;;;;;;;;;;;;;;;;;;4966641;28;20352;-54
2022/10/19 04:47:23;;;;;;;;;;;;;;;;;;4970729;28;19918;-53
2022/10/19 04:49:48;;;;;;;;;;;;;;;;;;4959294;28;19918;-54
2022/10/19 04:52:14;;;;;;;;;;;;;;;;;;4963257;28;19973;-53
2022/10/19 04:54:39;;;;;;;;;;;;;;;;;;4964192;28;20000;-54
2022/10/19 04:57:04;;;;;;;;;;;;;;;;;;4967886;28;19941;-54
2022/10/19 04:59:29;;;;;;;;;;;;;;;;;;4965375;28;19972;-53
2022/10/19 05:01:55;;;;;;;;;;;;;;;;;;4960150;28;20408;-54
2022/10/19 05:04:20;;;;;;;;;;;;;;;;;;4963046;28;19918;-56
2022/10/19 05:06:45;;;;;;;;;;;;;;;;;;4966334;28;20411;-56
2022/10/19 05:09:10;;;;;;;;;;;;;;;;;;4964895;28;20001;-57
2022/10/19 05:11:36;;;;;;;;;;;;;;;;;;4964413;28;19923;-56
2022/10/19 05:14:01;;;;;;;;;;;;;;;;;;4958628;28;20399;-56
2022/10/19 05:16:26;;;;;;;;;;;;;;;;;;4966497;28;19971;-56
2022/10/19 05:18:54;;;;;;;;;;;;;;;;;;4961680;28;19979;-56
2022/10/19 05:21:20;;;;;;;;;;;;;;;;;;4969090;28;19918;-56
2022/10/19 05:23:46;;;;;;;;;;;;;;;;;;4967077;28;19926;-56
2022/10/19 05:26:13;;;;;;;;;;;;;;;;;;4971505;28;19985;-56
2022/10/19 05:28:38;;;;;;;;;;;;;;;;;;4961426;28;20396;-56
2022/10/19 05:31:14;;;;;;;;;;;;;;;;;;4967624;28;19980;-56
2022/10/19 05:33:40;;;;;;;;;;;;;;;;;;4965285;28;20408;-56
2022/10/19 05:36:25;;;;;;;;;;;;;;;;;;4966974;28;19957;-56
2022/10/19 05:38:51;;;;;;;;;;;;;;;;;;4970561;28;20024;-56
2022/10/19 05:41:17;;;;;;;;;;;;;;;;;;4975473;28;19971;-56
2022/10/19 05:43:42;;;;;;;;;;;;;;;;;;4971404;28;19918;-56
2022/10/19 05:46:09;;;;;;;;;;;;;;;;;;4964880;28;19926;-56
2022/10/19 05:48:34;;;;;;;;;;;;;;;;;;4967962;28;19958;-58
2022/10/19 05:51:04;;;;;;;;;;;;;;;;;;4974288;28;20510;-58
2022/10/19 05:53:29;;;;;;;;;;;;;;;;;;4966892;28;20404;-58
2022/10/19 05:55:55;;;;;;;;;;;;;;;;;;4968577;28;20327;-58
2022/10/19 05:58:20;;;;;;;;;;;;;;;;;;4963202;28;20379;-57
2022/10/19 06:00:51;;;;;;;;;;;;;;;;;;4963691;28;19918;-58
2022/10/19 06:03:17;;;;;;;;;;;;;;;;;;4964151;28;19972;-58
2022/10/19 06:05:42;;;;;;;;;;;;;;;;;;4968065;28;19921;-57
2022/10/19 06:08:07;;;;;;;;;;;;;;;;;;4963231;28;19922;-57
2022/10/19 06:10:33;;;;;;;;;;;;;;;;;;4976131;28;19998;-58
2022/10/19 06:12:58;;;;;;;;;;;;;;;;;;4967891;28;19922;-58
2022/10/19 06:15:23;;;;;;;;;;;;;;;;;;4969995;28;19923;-58
2022/10/19 06:17:48;;;;;;;;;;;;;;;;;;4964786;28;20295;-55
2022/10/19 06:20:14;;;;;;;;;;;;;;;;;;4965971;28;19918;-58
2022/10/19 06:22:41;;;;;;;;;;;;;;;;;;4971604;28;19924;-57
2022/10/19 06:25:06;;;;;;;;;;;;;;;;;;4965459;28;19929;-58
2022/10/19 06:27:31;;;;;;;;;;;;;;;;;;4971162;28;20307;-58
2022/10/19 06:29:57;;;;;;;;;;;;;;;;;;4966586;28;19924;-57
2022/10/19 06:32:22;;;;;;;;;;;;;;;;;;4968813;28;19940;-58
2022/10/19 06:34:47;;;;;;;;;;;;;;;;;;4967950;28;19971;-57
2022/10/19 06:37:12;;;;;;;;;;;;;;;;;;4971180;28;20391;-57
2022/10/19 06:39:38;;;;;;;;;;;;;;;;;;4967567;28;19976;-58
2022/10/19 06:42:03;;;;;;;;;;;;;;;;;;4970520;28;20009;-57
2022/10/19 06:44:28;;;;;;;;;;;;;;;;;;4966334;28;19929;-57
2022/10/19 06:46:53;;;;;;;;;;;;;;;;;;4970518;28;19933;-57
2022/10/19 06:49:19;;;;;;;;;;;;;;;;;;4965931;28;20283;-58
2022/10/19 06:51:44;;;;;;;;;;;;;;;;;;4964035;28;19922;-57
2022/10/19 06:54:09;;;;;;;;;;;;;;;;;;4968464;28;20326;-58
2022/10/19 06:56:35;;;;;;;;;;;;;;;;;;4962329;28;20387;-57
2022/10/19 06:59:00;;;;;;;;;;;;;;;;;;4965229;28;19918;-57
2022/10/19 07:01:25;;;;;;;;;;;;;;;;;;4961790;28;20473;-57
2022/10/19 07:03:52;;;;;;;;;;;;;;;;;;4964423;28;20565;-57
2022/10/19 07:06:17;;;;;;;;;;;;;;;;;;4967724;28;19918;-56
2022/10/19 07:08:43;;;;;;;;;;;;;;;;;;4969377;28;19922;-57
2022/10/19 07:11:09;;;;;;;;;;;;;;;;;;4964106;28;20311;-57
2022/10/19 07:13:34;;;;;;;;;;;;;;;;;;4967629;28;19922;-57
2022/10/19 07:16:04;;;;;;;;;;;;;;;;;;4963930;28;19999;-57
2022/10/19 07:18:29;;;;;;;;;;;;;;;;;;4970374;28;19924;-57
2022/10/19 07:20:59;;;;;;;;;;;;;;;;;;4963930;28;19991;-57
2022/10/19 07:23:24;;;;;;;;;;;;;;;;;;4967368;28;19987;-57
2022/10/19 07:25:52;;;;;;;;;;;;;;;;;;4966817;28;20403;-57
2022/10/19 07:28:17;;;;;;;;;;;;;;;;;;4972397;28;19941;-57
2022/10/19 07:30:43;;;;;;;;;;;;;;;;;;4971712;28;19926;-57
2022/10/19 07:33:08;;;;;;;;;;;;;;;;;;4963565;28;20387;-57
2022/10/19 07:35:33;;;;;;;;;;;;;;;;;;4971310;28;20017;-57
2022/10/19 07:37:59;;;;;;;;;;;;;;;;;;4972143;28;19925;-57
2022/10/19 07:40:24;;;;;;;;;;;;;;;;;;4973988;28;19961;-57
2022/10/19 07:42:49;;;;;;;;;;;;;;;;;;4972230;28;19932;-57
2022/10/19 07:45:14;;;;;;;;;;;;;;;;;;4972215;28;19926;-56
2022/10/19 07:47:40;;;;;;;;;;;;;;;;;;4971864;28;19925;-57
2022/10/19 07:50:05;;;;;;;;;;;;;;;;;;4966442;28;20402;-57
2022/10/19 07:52:31;;;;;;;;;;;;;;;;;;4966418;28;19934;-57
2022/10/19 07:54:57;;;;;;;;;;;;;;;;;;4968254;28;20402;-57
2022/10/19 07:57:22;;;;;;;;;;;;;;;;;;4969492;28;19925;-56
2022/10/19 07:59:47;;;;;;;;;;;;;;;;;;4968386;28;20399;-57
2022/10/19 08:02:14;;;;;;;;;;;;;;;;;;4966724;28;19925;-57
2022/10/19 08:04:40;;;;;;;;;;;;;;;;;;4961926;28;20001;-56
2022/10/19 08:07:05;;;;;;;;;;;;;;;;;;4967472;28;20052;-56
2022/10/19 08:09:30;;;;;;;;;;;;;;;;;;4968179;28;19918;-56
2022/10/19 08:11:55;;;;;;;;;;;;;;;;;;4960270;28;19933;-56
2022/10/19 08:14:21;;;;;;;;;;;;;;;;;;4964376;28;19922;-56
2022/10/19 08:16:46;;;;;;;;;;;;;;;;;;4971470;28;20402;-56
2022/10/19 08:19:13;;;;;;;;;;;;;;;;;;4968720;28;19978;-56
2022/10/19 08:21:39;;;;;;;;;;;;;;;;;;4962399;28;20818;-57
2022/10/19 08:24:05;;;;;;;;;;;;;;;;;;4966691;28;19965;-57
2022/10/19 08:26:31;;;;;;;;;;;;;;;;;;4964855;28;19949;-57
2022/10/19 08:29:00;;;;;;;;;;;;;;;;;;4966794;28;20295;-57
2022/10/19 08:31:26;;;;;;;;;;;;;;;;;;4974931;28;19925;-58
2022/10/19 08:33:51;;;;;;;;;;;;;;;;;;4985494;28;19917;-57
2022/10/19 08:36:18;;;;;;;;;;;;;;;;;;4966170;28;20505;-57
2022/10/19 08:38:44;;;;;;;;;;;;;;;;;;4961279;28;19976;-56
2022/10/19 08:41:09;;;;;;;;;;;;;;;;;;4964338;28;19922;-57
2022/10/19 08:43:37;;;;;;;;;;;;;;;;;;4972267;28;19926;-57
2022/10/19 08:46:21;;;;;;;;;;;;;;;;;;4976049;28;19922;-56
2022/10/19 08:48:47;;;;;;;;;;;;;;;;;;4969996;28;19922;-57
2022/10/19 08:51:12;;;;;;;;;;;;;;;;;;4966861;28;20563;-57
2022/10/19 08:53:47;;;;;;;;;;;;;;;;;;4959342;28;20029;-57
2022/10/19 08:56:15;;;;;;;;;;;;;;;;;;4968469;28;19925;-57
2022/10/19 08:58:49;;;;;;;;;;;;;;;;;;4965048;28;19918;-56
2022/10/19 09:01:33;;;;;;;;;;;;;;;;;;4965597;28;19918;-57
2022/10/19 09:04:05;;;;;;;;;;;;;;;;;;4968056;28;20021;-56
2022/10/19 09:06:43;;;;;;;;;;;;;;;;;;4963402;28;20289;-56
2022/10/19 09:09:11;;;;;;;;;;;;;;;;;;4962658;28;19923;-57
2022/10/19 09:11:55;;;;;;;;;;;;;;;;;;4958087;28;20861;-59
2022/10/19 09:14:43;;;;;;;;;;;;;;;;;;4966903;28;20240;-57
2022/10/19 09:17:11;;;;;;;;;;;;;;;;;;4979257;28;19923;-56
2022/10/19 09:19:36;;;;;;;;;;;;;;;;;;4968034;28;19917;-57
2022/10/19 09:22:15;;;;;;;;;;;;;;;;;;4960522;28;19918;-58
2022/10/19 09:24:43;;;;;;;;;;;;;;;;;;4962369;28;19918;-56
2022/10/19 09:27:34;;;;;;;;;;;;;;;;;;4966727;28;19918;-56
2022/10/19 09:30:02;;;;;;;;;;;;;;;;;;4966209;28;19919;-57
2022/10/19 09:32:34;;;;;;;;;;;;;;;;;;4963447;28;19987;-55
2022/10/19 09:35:01;;;;;;;;;;;;;;;;;;4967444;28;19976;-58
2022/10/19 09:37:30;;;;;;;;;;;;;;;;;;4967824;28;20353;-58
2022/10/19 09:39:56;;;;;;;;;;;;;;;;;;4966423;28;19918;-57
2022/10/19 09:42:35;;;;;;;;;;;;;;;;;;4969847;28;20342;-55
2022/10/19 09:45:10;;;;;;;;;;;;;;;;;;4971359;28;19926;-56
2022/10/19 09:47:36;;;;;;;;;;;;;;;;;;4977414;28;19964;-57
2022/10/19 09:50:05;;;;;;;;;;;;;;;;;;4961334;28;20337;-57
2022/10/19 09:52:30;;;;;;;;;;;;;;;;;;4965116;28;20017;-56
2022/10/19 09:55:03;;;;;;;;;;;;;;;;;;4974437;28;19961;-56
2022/10/19 09:57:29;;;;;;;;;;;;;;;;;;4964561;28;19922;-57
2022/10/19 09:59:54;;;;;;;;;;;;;;;;;;4965448;28;20030;-56
2022/10/19 10:02:21;;;;;;;;;;;;;;;;;;4958278;28;20350;-57
2022/10/19 10:04:53;;;;;;;;;;;;;;;;;;4970227;28;19917;-57
2022/10/19 10:07:18;;;;;;;;;;;;;;;;;;4964938;28;19922;-57
2022/10/19 10:09:44;;;;;;;;;;;;;;;;;;4965735;28;19926;-57
2022/10/19 10:12:12;;;;;;;;;;;;;;;;;;4966433;28;20437;-56
2022/10/19 10:14:39;;;;;;;;;;;;;;;;;;4964493;28;20384;-56
2022/10/19 10:17:13;;;;;;;;;;;;;;;;;;4963721;28;19922;-57
2022/10/19 10:19:48;;;;;;;;;;;;;;;;;;4964252;28;19967;-57
2022/10/19 10:22:30;;;;;;;;;;;;;;;;;;4963978;28;19925;-56
2022/10/19 10:24:55;;;;;;;;;;;;;;;;;;4970932;28;20040;-57
2022/10/19 10:27:34;;;;;;;;;;;;;;;;;;4961312;28;20299;-57
2022/10/19 10:30:08;;;;;;;;;;;;;;;;;;4961520;28;19918;-57
2022/10/19 10:32:37;;;;;;;;;;;;;;;;;;4970166;28;19918;-57
2022/10/19 10:35:07;;;;;;;;;;;;;;;;;;4967721;28;20048;-57
2022/10/19 10:37:38;;;;;;;;;;;;;;;;;;4961980;28;19925;-57
2022/10/19 10:40:04;;;;;;;;;;;;;;;;;;4970031;28;19919;-52
2022/10/19 10:42:49;;;;;;;;;;;;;;;;;;4972159;28;20066;-52
2022/10/19 10:45:17;;;;;;;;;;;;;;;;;;4977736;28;19965;-52
2022/10/19 10:47:47;;;;;;;;;;;;;;;;;;4968164;28;20402;-50
2022/10/19 10:50:15;;;;;;;;;;;;;;;;;;4966631;28;19922;-50
2022/10/19 10:52:54;;;;;;;;;;;;;;;;;;4966181;28;19918;-51
2022/10/19 10:55:19;;;;;;;;;;;;;;;;;;4963901;28;19926;-52
2022/10/19 10:57:53;;;;;;;;;;;;;;;;;;4968325;28;20391;-52
2022/10/19 11:00:20;;;;;;;;;;;;;;;;;;4962732;28;19919;-52
2022/10/19 11:03:01;;;;;;;;;;;;;;;;;;4973056;28;19925;-51
2022/10/19 11:05:31;;;;;;;;;;;;;;;;;;4961740;28;20008;-53
2022/10/19 11:08:02;;;;;;;;;;;;;;;;;;4964665;28;19923;-50
2022/10/19 11:10:30;;;;;;;;;;;;;;;;;;4970333;28;20010;-51
2022/10/19 11:13:07;;;;;;;;;;;;;;;;;;4967648;28;20131;-50
2022/10/19 11:15:36;;;;;;;;;;;;;;;;;;4963806;28;19933;-57
2022/10/19 11:18:01;;;;;;;;;;;;;;;;;;4969431;28;19918;-57
2022/10/19 11:20:28;;;;;;;;;;;;;;;;;;4962514;28;19918;-57
2022/10/19 11:23:05;;;;;;;;;;;;;;;;;;4980128;28;19926;-57
2022/10/19 11:25:33;;;;;;;;;;;;;;;;;;4968682;28;19918;-58
2022/10/19 11:28:10;;;;;;;;;;;;;;;;;;4982798;28;19918;-57
2022/10/19 11:30:39;;;;;;;;;;;;;;;;;;4974818;28;20346;-58
2022/10/19 11:33:17;;;;;;;;;;;;;;;;;;4974511;28;20396;-57
2022/10/19 11:35:59;;;;;;;;;;;;;;;;;;4971817;28;19932;-57
2022/10/19 11:38:28;;;;;;;;;;;;;;;;;;4969847;28;19920;-57
2022/10/19 11:41:11;;;;;;;;;;;;;;;;;;4974803;28;19921;-59
2022/10/19 11:43:45;;;;;;;;;;;;;;;;;;4973595;28;19921;-58
2022/10/19 11:46:10;;;;;;;;;;;;;;;;;;4972869;28;19936;-57
2022/10/19 11:48:38;;;;;;;;;;;;;;;;;;4971651;28;20514;-57
2022/10/19 11:51:08;;;;;;;;;;;;;;;;;;4972676;28;20009;-58
2022/10/19 11:53:52;;;;;;;;;;;;;;;;;;4972361;28;20080;-57
2022/10/19 11:56:20;;;;;;;;;;;;;;;;;;4965127;28;19914;-57
2022/10/19 11:58:51;;;;;;;;;;;;;;;;;;4968734;28;20398;-57
2022/10/19 12:01:31;;;;;;;;;;;;;;;;;;4967970;28;20408;-57
2022/10/19 12:04:00;;;;;;;;;;;;;;;;;;4969437;28;20059;-57
2022/10/19 12:06:28;;;;;;;;;;;;;;;;;;4966985;28;19918;-57
2022/10/19 12:08:56;;;;;;;;;;;;;;;;;;4966462;28;20391;-57
2022/10/19 12:11:47;;;;;;;;;;;;;;;;;;4965465;28;19925;-57
2022/10/19 12:14:16;;;;;;;;;;;;;;;;;;4948259;28;20308;-57
2022/10/19 12:16:44;;;;;;;;;;;;;;;;;;4966739;28;19923;-57
2022/10/19 12:19:14;;;;;;;;;;;;;;;;;;4969848;28;19957;-57
2022/10/19 12:21:42;;;;;;;;;;;;;;;;;;4959693;28;20404;-57
2022/10/19 12:24:13;;;;;;;;;;;;;;;;;;4969861;28;19922;-57
2022/10/19 12:26:39;;;;;;;;;;;;;;;;;;4968253;28;19969;-57
2022/10/19 12:29:06;;;;;;;;;;;;;;;;;;4962710;28;19922;-57
2022/10/19 12:31:32;;;;;;;;;;;;;;;;;;4964851;28;20435;-57
2022/10/19 12:34:03;;;;;;;;;;;;;;;;;;4968223;28;19929;-57
2022/10/19 12:36:36;;;;;;;;;;;;;;;;;;4970248;28;20001;-57
2022/10/19 12:39:16;;;;;;;;;;;;;;;;;;4968791;28;19952;-57
2022/10/19 12:41:52;;;;;;;;;;;;;;;;;;4973950;28;20337;-57
2022/10/19 12:44:56;;;;;;;;;;;;;;;;;;4964545;28;19925;-57
2022/10/19 12:47:22;;;;;;;;;;;;;;;;;;5024155;28;20394;-57
2022/10/19 12:49:49;;;;;;;;;;;;;;;;;;5040786;28;19917;-57
2022/10/19 12:52:16;;;;;;;;;;;;;;;;;;5004793;28;20009;-57
2022/10/19 12:54:42;;;;;;;;;;;;;;;;;;4961132;28;19972;-57
2022/10/19 12:57:27;;;;;;;;;;;;;;;;;;4962234;28;19925;-58
2022/10/19 13:00:00;;;;;;;;;;;;;;;;;;4965227;28;19930;-57
2022/10/19 13:02:28;;;;;;;;;;;;;;;;;;4967296;28;19965;-57
2022/10/19 13:04:53;;;;;;;;;;;;;;;;;;4961896;28;19918;-57
2022/10/19 13:07:19;;;;;;;;;;;;;;;;;;4961833;28;20394;-57
2022/10/19 13:09:45;;;;;;;;;;;;;;;;;;4966394;28;19961;-57
2022/10/19 13:12:17;;;;;;;;;;;;;;;;;;4961100;28;19918;-57
2022/10/19 13:14:44;;;;;;;;;;;;;;;;;;4969518;28;19926;-57
2022/10/19 13:17:29;;;;;;;;;;;;;;;;;;4977423;28;19958;-57
2022/10/19 13:20:13;;;;;;;;;;;;;;;;;;4963255;28;19918;-57
2022/10/19 13:22:49;;;;;;;;;;;;;;;;;;4961540;28;20024;-57
2022/10/19 13:25:22;;;;;;;;;;;;;;;;;;4969234;28;20402;-57
2022/10/19 13:27:48;;;;;;;;;;;;;;;;;;4969097;28;19925;-57
2022/10/19 13:30:32;;;;;;;;;;;;;;;;;;4969905;28;20447;-58
2022/10/19 13:32:57;;;;;;;;;;;;;;;;;;4969134;28;19928;-57
2022/10/19 13:35:24;;;;;;;;;;;;;;;;;;4980642;28;19921;-57
2022/10/19 13:38:09;;;;;;;;;;;;;;;;;;4969518;28;19957;-57
2022/10/19 13:40:36;;;;;;;;;;;;;;;;;;4972349;28;19914;-57
2022/10/19 13:43:02;;;;;;;;;;;;;;;;;;4969673;28;19926;-57
2022/10/19 13:45:27;;;;;;;;;;;;;;;;;;4972461;28;19922;-56
2022/10/19 13:47:56;;;;;;;;;;;;;;;;;;4969230;28;19934;-57
2022/10/19 13:50:30;;;;;;;;;;;;;;;;;;4965810;28;19922;-56
2022/10/19 13:52:59;;;;;;;;;;;;;;;;;;4961189;28;19971;-56
2022/10/19 13:55:27;;;;;;;;;;;;;;;;;;4960113;28;19976;-56
2022/10/19 13:57:55;;;;;;;;;;;;;;;;;;4960437;28;19922;-57
2022/10/19 14:00:20;;;;;;;;;;;;;;;;;;4963626;28;19930;-57
2022/10/19 14:02:46;;;;;;;;;;;;;;;;;;4965722;28;19918;-56
2022/10/19 14:05:31;;;;;;;;;;;;;;;;;;4965838;28;19925;-57
2022/10/19 14:08:05;;;;;;;;;;;;;;;;;;4965420;28;19918;-57
2022/10/19 14:10:31;;;;;;;;;;;;;;;;;;4971356;28;19922;-56
2022/10/19 14:12:57;;;;;;;;;;;;;;;;;;4964827;28;20067;-57
2022/10/19 14:15:22;;;;;;;;;;;;;;;;;;4964014;28;19922;-57
2022/10/19 14:17:47;;;;;;;;;;;;;;;;;;4964935;28;19941;-57
2022/10/19 14:20:25;;;;;;;;;;;;;;;;;;4960040;28;19924;-57
2022/10/19 14:22:50;;;;;;;;;;;;;;;;;;4962730;28;20372;-57
2022/10/19 14:25:17;;;;;;;;;;;;;;;;;;4958636;28;20009;-57
2022/10/19 14:27:44;;;;;;;;;;;;;;;;;;4957303;28;19964;-56
2022/10/19 14:30:36;;;;;;;;;;;;;;;;;;4966737;28;20226;-56
2022/10/19 14:33:06;;;;;;;;;;;;;;;;;;4960521;28;19919;-56
2022/10/19 14:35:36;;;;;;;;;;;;;;;;;;4959433;28;19926;-56
2022/10/19 14:38:03;;;;;;;;;;;;;;;;;;4959016;28;19922;-56
2022/10/19 14:40:30;;;;;;;;;;;;;;;;;;4962970;28;19933;-56
2022/10/19 14:42:56;;;;;;;;;;;;;;;;;;4963613;28;20406;-56
2022/10/19 14:45:24;;;;;;;;;;;;;;;;;;4962697;28;19959;-56
2022/10/19 14:47:50;;;;;;;;;;;;;;;;;;4963672;28;19929;-57
2022/10/19 14:50:16;;;;;;;;;;;;;;;;;;4964453;28;20388;-57
2022/10/19 14:52:41;;;;;;;;;;;;;;;;;;4959269;28;19929;-57
2022/10/19 14:55:08;;;;;;;;;;;;;;;;;;4973491;28;19929;-57
2022/10/19 14:57:35;;;;;;;;;;;;;;;;;;4961587;28;19926;-57
2022/10/19 15:00:04;;;;;;;;;;;;;;;;;;4960682;28;20395;-57
2022/10/19 15:02:32;;;;;;;;;;;;;;;;;;4959765;28;19926;-57
2022/10/19 15:04:59;;;;;;;;;;;;;;;;;;4964170;28;20411;-57
2022/10/19 15:07:24;;;;;;;;;;;;;;;;;;4963973;28;19973;-57
2022/10/19 15:09:58;;;;;;;;;;;;;;;;;;4963688;28;20338;-57
2022/10/19 15:12:34;;;;;;;;;;;;;;;;;;4969896;28;19925;-57
2022/10/19 15:14:59;;;;;;;;;;;;;;;;;;4959797;28;19930;-57
2022/10/19 15:17:29;;;;;;;;;;;;;;;;;;4969837;28;19922;-57
2022/10/19 15:19:59;;;;;;;;;;;;;;;;;;4970640;28;20009;-57
2022/10/19 15:22:25;;;;;;;;;;;;;;;;;;4967901;28;20012;-57
2022/10/19 15:24:54;;;;;;;;;;;;;;;;;;4968807;28;19997;-57
2022/10/19 15:27:21;;;;;;;;;;;;;;;;;;4973490;28;20057;-57
2022/10/19 15:29:56;;;;;;;;;;;;;;;;;;4970366;28;19918;-56
2022/10/19 15:32:22;;;;;;;;;;;;;;;;;;4966714;28;19918;-56
2022/10/19 15:34:48;;;;;;;;;;;;;;;;;;4969212;28;19965;-56
2022/10/19 15:37:20;;;;;;;;;;;;;;;;;;4969600;28;19965;-57
2022/10/19 15:39:46;;;;;;;;;;;;;;;;;;4967799;28;19914;-56
2022/10/19 15:42:30;;;;;;;;;;;;;;;;;;4972776;28;20441;-56
2022/10/19 15:44:55;;;;;;;;;;;;;;;;;;4971603;28;19929;-57
2022/10/19 15:47:22;;;;;;;;;;;;;;;;;;4971801;28;19944;-57
2022/10/19 15:49:52;;;;;;;;;;;;;;;;;;4973695;28;19915;-57
2022/10/19 15:52:19;;;;;;;;;;;;;;;;;;4962842;28;19918;-57
2022/10/19 15:54:48;;;;;;;;;;;;;;;;;;4968144;28;20359;-57
2022/10/19 15:57:30;;;;;;;;;;;;;;;;;;4969866;28;20337;-57
2022/10/19 15:59:56;;;;;;;;;;;;;;;;;;4969598;28;19921;-56
2022/10/19 16:02:23;;;;;;;;;;;;;;;;;;4968630;28;20470;-57
2022/10/19 16:04:49;;;;;;;;;;;;;;;;;;4968260;28;19972;-57
2022/10/19 16:07:18;;;;;;;;;;;;;;;;;;4969019;28;19962;-57
2022/10/19 16:09:43;;;;;;;;;;;;;;;;;;4969582;28;20021;-57
2022/10/19 16:12:09;;;;;;;;;;;;;;;;;;4968763;28;20029;-58
2022/10/19 16:14:35;;;;;;;;;;;;;;;;;;4971829;28;20371;-57
2022/10/19 16:17:00;;;;;;;;;;;;;;;;;;4962918;28;19961;-57
2022/10/19 16:19:25;;;;;;;;;;;;;;;;;;4964332;28;19972;-57
2022/10/19 16:21:51;;;;;;;;;;;;;;;;;;4964023;28;19922;-57
2022/10/19 16:24:16;;;;;;;;;;;;;;;;;;4967961;28;20327;-57
2022/10/19 16:26:41;;;;;;;;;;;;;;;;;;4966691;28;20017;-57
2022/10/19 16:29:07;;;;;;;;;;;;;;;;;;4960473;28;19925;-57
2022/10/19 16:31:32;;;;;;;;;;;;;;;;;;4959912;28;19934;-57
2022/10/19 16:33:57;;;;;;;;;;;;;;;;;;4960026;28;19922;-57
2022/10/19 16:36:23;;;;;;;;;;;;;;;;;;4963149;28;19930;-57
2022/10/19 16:38:48;;;;;;;;;;;;;;;;;;4966922;28;19932;-57
2022/10/19 16:41:13;;;;;;;;;;;;;;;;;;4962556;28;19934;-57
2022/10/19 16:43:39;;;;;;;;;;;;;;;;;;4966913;28;19931;-57
2022/10/19 16:46:04;;;;;;;;;;;;;;;;;;4967819;28;19925;-58
2022/10/19 16:48:30;;;;;;;;;;;;;;;;;;4962965;28;19926;-57
2022/10/19 16:51:04;;;;;;;;;;;;;;;;;;4963910;28;19918;-57
2022/10/19 16:53:38;;;;;;;;;;;;;;;;;;4963275;28;19922;-59